sensor_id;sensor_type;location;lat;lon;timestamp;pressure;altitude;pressure_sealevel;temperature
66403;BMP180;53212;52.112;5.144;2022-12-24T00:00:23;100480.80;;;10.00
66403;BMP180;53212;52.112;5.144;2022-12-24T00:02:49;100480.20;;;10.00
66403;BMP180;53212;52.112;5.144;2022-12-24T00:05:15;100483.20;;;10.00
66403;BMP180;53212;52.112;5.144;2022-12-24T00:07:40;100480.80;;;10.00
66403;BMP180;53212;52.112;5.144;2022-12-24T00:10:07;100488.00;;;10.00
66403;BMP180;53212;52.112;5.144;2022-12-24T00:12:33;100498.00;;;10.00
66403;BMP180;53212;52.112;5.144;2022-12-24T00:14:59;100495.20;;;10.00
66403;BMP180;53212;52.112;5.144;2022-12-24T00:17:24;100497.20;;;10.00
66403;BMP180;53212;52.112;5.144;2022-12-24T00:19:50;100498.60;;;10.04
66403;BMP180;53212;52.112;5.144;2022-12-24T00:22:15;100497.60;;;10.00
66403;BMP180;53212;52.112;5.144;2022-12-24T00:24:41;100514.60;;;10.00
66403;BMP180;53212;52.112;5.144;2022-12-24T00:27:06;100508.00;;;10.00
66403;BMP180;53212;52.112;5.144;2022-12-24T00:29:32;100514.20;;;10.00
66403;BMP180;53212;52.112;5.144;2022-12-24T00:31:58;100517.00;;;9.94
66403;BMP180;53212;52.112;5.144;2022-12-24T00:34:24;100519.80;;;9.90
66403;BMP180;53212;52.112;5.144;2022-12-24T00:36:50;100520.60;;;9.90
66403;BMP180;53212;52.112;5.144;2022-12-24T00:39:15;100523.20;;;9.90
66403;BMP180;53212;52.112;5.144;2022-12-24T00:41:41;100527.60;;;9.82
66403;BMP180;53212;52.112;5.144;2022-12-24T00:44:08;100529.40;;;9.80
66403;BMP180;53212;52.112;5.144;2022-12-24T00:46:39;100535.00;;;9.80
66403;BMP180;53212;52.112;5.144;2022-12-24T00:49:06;100527.20;;;9.80
66403;BMP180;53212;52.112;5.144;2022-12-24T00:51:34;100530.20;;;9.76
66403;BMP180;53212;52.112;5.144;2022-12-24T00:54:00;100539.60;;;9.70
66403;BMP180;53212;52.112;5.144;2022-12-24T00:56:26;100545.80;;;9.70
66403;BMP180;53212;52.112;5.144;2022-12-24T00:58:52;100547.40;;;9.70
66403;BMP180;53212;52.112;5.144;2022-12-24T01:01:19;100552.60;;;9.60
66403;BMP180;53212;52.112;5.144;2022-12-24T01:03:44;100556.20;;;9.60
66403;BMP180;53212;52.112;5.144;2022-12-24T01:06:20;100562.40;;;9.50
66403;BMP180;53212;52.112;5.144;2022-12-24T01:08:49;100560.20;;;9.40
66403;BMP180;53212;52.112;5.144;2022-12-24T01:11:16;100569.40;;;9.40
66403;BMP180;53212;52.112;5.144;2022-12-24T01:13:41;100563.60;;;9.40
66403;BMP180;53212;52.112;5.144;2022-12-24T01:16:19;100580.00;;;9.32
66403;BMP180;53212;52.112;5.144;2022-12-24T01:18:44;100587.00;;;9.30
66403;BMP180;53212;52.112;5.144;2022-12-24T01:21:10;100587.40;;;9.30
66403;BMP180;53212;52.112;5.144;2022-12-24T01:23:35;100590.60;;;9.26
66403;BMP180;53212;52.112;5.144;2022-12-24T01:26:03;100597.20;;;9.20
66403;BMP180;53212;52.112;5.144;2022-12-24T01:28:30;100599.40;;;9.20
66403;BMP180;53212;52.112;5.144;2022-12-24T01:30:55;100603.60;;;9.10
66403;BMP180;53212;52.112;5.144;2022-12-24T01:33:21;100601.80;;;9.00
66403;BMP180;53212;52.112;5.144;2022-12-24T01:35:46;100604.60;;;9.00
66403;BMP180;53212;52.112;5.144;2022-12-24T01:38:12;100608.00;;;8.90
66403;BMP180;53212;52.112;5.144;2022-12-24T01:40:40;100609.00;;;8.82
66403;BMP180;53212;52.112;5.144;2022-12-24T01:43:28;100611.40;;;8.80
66403;BMP180;53212;52.112;5.144;2022-12-24T01:45:56;100619.20;;;8.72
66403;BMP180;53212;52.112;5.144;2022-12-24T01:48:44;100621.00;;;8.70
66403;BMP180;53212;52.112;5.144;2022-12-24T01:51:39;100629.40;;;8.66
66403;BMP180;53212;52.112;5.144;2022-12-24T01:56:51;100628.40;;;8.54
66403;BMP180;53212;52.112;5.144;2022-12-24T01:59:18;100627.20;;;8.50
66403;BMP180;53212;52.112;5.144;2022-12-24T02:01:47;100627.80;;;8.50
66403;BMP180;53212;52.112;5.144;2022-12-24T02:04:43;100636.00;;;8.42
66403;BMP180;53212;52.112;5.144;2022-12-24T02:07:10;100643.00;;;8.40
66403;BMP180;53212;52.112;5.144;2022-12-24T02:09:38;100649.20;;;8.40
66403;BMP180;53212;52.112;5.144;2022-12-24T02:12:04;100652.20;;;8.30
66403;BMP180;53212;52.112;5.144;2022-12-24T02:14:31;100657.80;;;8.30
66403;BMP180;53212;52.112;5.144;2022-12-24T02:17:31;100662.80;;;8.30
66403;BMP180;53212;52.112;5.144;2022-12-24T02:31:42;100673.00;;;8.20
66403;BMP180;53212;52.112;5.144;2022-12-24T02:34:29;100675.80;;;8.20
66403;BMP180;53212;52.112;5.144;2022-12-24T02:37:04;100674.00;;;8.20
66403;BMP180;53212;52.112;5.144;2022-12-24T02:39:41;100675.80;;;8.10
66403;BMP180;53212;52.112;5.144;2022-12-24T02:42:10;100675.00;;;8.10
66403;BMP180;53212;52.112;5.144;2022-12-24T02:44:51;100677.20;;;8.00
66403;BMP180;53212;52.112;5.144;2022-12-24T02:47:21;100677.00;;;8.00
66403;BMP180;53212;52.112;5.144;2022-12-24T02:49:47;100679.20;;;8.00
66403;BMP180;53212;52.112;5.144;2022-12-24T02:52:36;100678.40;;;8.00
66403;BMP180;53212;52.112;5.144;2022-12-24T02:55:17;100689.20;;;8.00
66403;BMP180;53212;52.112;5.144;2022-12-24T03:00:36;100697.00;;;8.00
66403;BMP180;53212;52.112;5.144;2022-12-24T03:03:34;100695.40;;;8.10
66403;BMP180;53212;52.112;5.144;2022-12-24T03:08:51;100691.00;;;8.10
66403;BMP180;53212;52.112;5.144;2022-12-24T03:11:19;100690.40;;;8.10
66403;BMP180;53212;52.112;5.144;2022-12-24T03:13:46;100691.60;;;8.10
66403;BMP180;53212;52.112;5.144;2022-12-24T03:16:17;100691.60;;;8.10
66403;BMP180;53212;52.112;5.144;2022-12-24T03:18:48;100690.60;;;8.10
66403;BMP180;53212;52.112;5.144;2022-12-24T03:21:27;100694.20;;;8.10
66403;BMP180;53212;52.112;5.144;2022-12-24T03:23:55;100701.20;;;8.10
66403;BMP180;53212;52.112;5.144;2022-12-24T03:26:20;100704.80;;;8.12
66403;BMP180;53212;52.112;5.144;2022-12-24T03:28:47;100703.60;;;8.20
66403;BMP180;53212;52.112;5.144;2022-12-24T03:31:14;100704.60;;;8.20
66403;BMP180;53212;52.112;5.144;2022-12-24T03:33:39;100710.20;;;8.20
66403;BMP180;53212;52.112;5.144;2022-12-24T03:36:06;100710.80;;;8.20
66403;BMP180;53212;52.112;5.144;2022-12-24T03:38:32;100709.40;;;8.28
66403;BMP180;53212;52.112;5.144;2022-12-24T03:40:59;100718.40;;;8.30
66403;BMP180;53212;52.112;5.144;2022-12-24T03:43:25;100720.20;;;8.40
66403;BMP180;53212;52.112;5.144;2022-12-24T03:45:50;100713.20;;;8.40
66403;BMP180;53212;52.112;5.144;2022-12-24T03:48:16;100720.20;;;8.50
66403;BMP180;53212;52.112;5.144;2022-12-24T03:50:41;100718.80;;;8.50
66403;BMP180;53212;52.112;5.144;2022-12-24T03:53:07;100714.60;;;8.60
66403;BMP180;53212;52.112;5.144;2022-12-24T03:55:32;100717.80;;;8.60
66403;BMP180;53212;52.112;5.144;2022-12-24T03:57:58;100728.00;;;8.62
66403;BMP180;53212;52.112;5.144;2022-12-24T04:00:23;100725.20;;;8.70
66403;BMP180;53212;52.112;5.144;2022-12-24T04:02:49;100721.00;;;8.70
66403;BMP180;53212;52.112;5.144;2022-12-24T04:05:17;100728.20;;;8.80
66403;BMP180;53212;52.112;5.144;2022-12-24T04:07:43;100734.40;;;8.80
66403;BMP180;53212;52.112;5.144;2022-12-24T04:10:10;100731.60;;;8.80
66403;BMP180;53212;52.112;5.144;2022-12-24T04:12:37;100731.60;;;8.80
66403;BMP180;53212;52.112;5.144;2022-12-24T04:15:03;100726.00;;;8.80
66403;BMP180;53212;52.112;5.144;2022-12-24T04:17:29;100726.20;;;8.80
66403;BMP180;53212;52.112;5.144;2022-12-24T04:19:54;100720.40;;;8.80
66403;BMP180;53212;52.112;5.144;2022-12-24T04:22:20;100725.80;;;8.90
66403;BMP180;53212;52.112;5.144;2022-12-24T04:24:45;100736.60;;;8.90
66403;BMP180;53212;52.112;5.144;2022-12-24T04:27:15;100741.00;;;8.90
66403;BMP180;53212;52.112;5.144;2022-12-24T04:29:41;100739.20;;;8.90
66403;BMP180;53212;52.112;5.144;2022-12-24T04:32:07;100741.40;;;8.90
66403;BMP180;53212;52.112;5.144;2022-12-24T04:34:32;100740.60;;;8.90
66403;BMP180;53212;52.112;5.144;2022-12-24T04:36:58;100750.00;;;8.90
66403;BMP180;53212;52.112;5.144;2022-12-24T04:39:23;100754.20;;;8.90
66403;BMP180;53212;52.112;5.144;2022-12-24T04:41:49;100758.80;;;8.90
66403;BMP180;53212;52.112;5.144;2022-12-24T04:44:14;100762.20;;;8.90
66403;BMP180;53212;52.112;5.144;2022-12-24T04:46:39;100765.80;;;8.90
66403;BMP180;53212;52.112;5.144;2022-12-24T04:49:07;100759.80;;;8.90
66403;BMP180;53212;52.112;5.144;2022-12-24T04:51:33;100758.20;;;8.90
66403;BMP180;53212;52.112;5.144;2022-12-24T04:53:59;100759.20;;;8.90
66403;BMP180;53212;52.112;5.144;2022-12-24T04:56:29;100765.40;;;8.90
66403;BMP180;53212;52.112;5.144;2022-12-24T04:58:58;100771.20;;;9.00
66403;BMP180;53212;52.112;5.144;2022-12-24T05:01:26;100771.60;;;9.00
66403;BMP180;53212;52.112;5.144;2022-12-24T05:03:53;100777.00;;;9.00
66403;BMP180;53212;52.112;5.144;2022-12-24T05:06:23;100775.60;;;9.02
66403;BMP180;53212;52.112;5.144;2022-12-24T05:08:49;100768.80;;;9.08
66403;BMP180;53212;52.112;5.144;2022-12-24T05:11:15;100771.60;;;9.02
66403;BMP180;53212;52.112;5.144;2022-12-24T05:13:42;100772.40;;;9.00
66403;BMP180;53212;52.112;5.144;2022-12-24T05:16:10;100768.40;;;9.00
66403;BMP180;53212;52.112;5.144;2022-12-24T05:18:36;100763.20;;;9.00
66403;BMP180;53212;52.112;5.144;2022-12-24T05:21:02;100770.60;;;9.06
66403;BMP180;53212;52.112;5.144;2022-12-24T05:23:27;100777.00;;;9.06
66403;BMP180;53212;52.112;5.144;2022-12-24T05:26:17;100777.60;;;9.10
66403;BMP180;53212;52.112;5.144;2022-12-24T05:28:47;100776.00;;;9.10
66403;BMP180;53212;52.112;5.144;2022-12-24T05:31:13;100774.80;;;9.10
66403;BMP180;53212;52.112;5.144;2022-12-24T05:33:38;100780.40;;;9.10
66403;BMP180;53212;52.112;5.144;2022-12-24T05:36:04;100781.00;;;9.14
66403;BMP180;53212;52.112;5.144;2022-12-24T05:38:30;100786.40;;;9.20
66403;BMP180;53212;52.112;5.144;2022-12-24T05:40:55;100790.00;;;9.20
66403;BMP180;53212;52.112;5.144;2022-12-24T05:43:20;100782.80;;;9.20
66403;BMP180;53212;52.112;5.144;2022-12-24T05:45:47;100784.40;;;9.26
66403;BMP180;53212;52.112;5.144;2022-12-24T05:48:12;100786.00;;;9.30
66403;BMP180;53212;52.112;5.144;2022-12-24T05:50:39;100780.40;;;9.30
66403;BMP180;53212;52.112;5.144;2022-12-24T05:53:06;100780.00;;;9.30
66403;BMP180;53212;52.112;5.144;2022-12-24T05:55:33;100782.00;;;9.30
66403;BMP180;53212;52.112;5.144;2022-12-24T05:57:58;100789.80;;;9.30
66403;BMP180;53212;52.112;5.144;2022-12-24T06:00:24;100796.00;;;9.30
66403;BMP180;53212;52.112;5.144;2022-12-24T06:02:49;100806.40;;;9.30
66403;BMP180;53212;52.112;5.144;2022-12-24T06:05:15;100803.40;;;9.30
66403;BMP180;53212;52.112;5.144;2022-12-24T06:07:40;100804.60;;;9.30
66403;BMP180;53212;52.112;5.144;2022-12-24T06:10:07;100803.00;;;9.30
66403;BMP180;53212;52.112;5.144;2022-12-24T06:12:33;100803.80;;;9.30
66403;BMP180;53212;52.112;5.144;2022-12-24T06:14:58;100809.60;;;9.30
66403;BMP180;53212;52.112;5.144;2022-12-24T06:17:24;100812.00;;;9.30
66403;BMP180;53212;52.112;5.144;2022-12-24T06:19:49;100810.00;;;9.30
66403;BMP180;53212;52.112;5.144;2022-12-24T06:22:15;100818.20;;;9.30
66403;BMP180;53212;52.112;5.144;2022-12-24T06:24:40;100816.20;;;9.30
66403;BMP180;53212;52.112;5.144;2022-12-24T06:27:05;100814.00;;;9.30
66403;BMP180;53212;52.112;5.144;2022-12-24T06:29:31;100820.00;;;9.30
66403;BMP180;53212;52.112;5.144;2022-12-24T06:31:56;100826.40;;;9.30
66403;BMP180;53212;52.112;5.144;2022-12-24T06:34:22;100827.60;;;9.30
66403;BMP180;53212;52.112;5.144;2022-12-24T06:36:47;100832.40;;;9.28
66403;BMP180;53212;52.112;5.144;2022-12-24T06:39:12;100828.20;;;9.30
66403;BMP180;53212;52.112;5.144;2022-12-24T06:41:38;100834.40;;;9.30
66403;BMP180;53212;52.112;5.144;2022-12-24T06:44:03;100838.00;;;9.30
66403;BMP180;53212;52.112;5.144;2022-12-24T06:46:29;100833.60;;;9.30
66403;BMP180;53212;52.112;5.144;2022-12-24T06:48:54;100829.60;;;9.30
66403;BMP180;53212;52.112;5.144;2022-12-24T06:51:20;100843.00;;;9.30
66403;BMP180;53212;52.112;5.144;2022-12-24T06:53:47;100841.20;;;9.30
66403;BMP180;53212;52.112;5.144;2022-12-24T06:56:14;100839.20;;;9.30
66403;BMP180;53212;52.112;5.144;2022-12-24T06:58:41;100835.00;;;9.30
66403;BMP180;53212;52.112;5.144;2022-12-24T07:01:10;100845.00;;;9.30
66403;BMP180;53212;52.112;5.144;2022-12-24T07:03:37;100847.00;;;9.30
66403;BMP180;53212;52.112;5.144;2022-12-24T07:06:03;100846.00;;;9.30
66403;BMP180;53212;52.112;5.144;2022-12-24T07:08:29;100849.60;;;9.30
66403;BMP180;53212;52.112;5.144;2022-12-24T07:10:58;100850.80;;;9.30
66403;BMP180;53212;52.112;5.144;2022-12-24T07:13:24;100848.60;;;9.24
66403;BMP180;53212;52.112;5.144;2022-12-24T07:16:01;100851.60;;;9.20
66403;BMP180;53212;52.112;5.144;2022-12-24T07:18:27;100854.00;;;9.20
66403;BMP180;53212;52.112;5.144;2022-12-24T07:20:53;100859.80;;;9.10
66403;BMP180;53212;52.112;5.144;2022-12-24T07:23:19;100857.80;;;9.00
66403;BMP180;53212;52.112;5.144;2022-12-24T07:25:44;100860.40;;;9.00
66403;BMP180;53212;52.112;5.144;2022-12-24T07:28:10;100871.80;;;8.98
66403;BMP180;53212;52.112;5.144;2022-12-24T07:30:36;100880.00;;;8.90
66403;BMP180;53212;52.112;5.144;2022-12-24T07:33:01;100881.00;;;8.90
66403;BMP180;53212;52.112;5.144;2022-12-24T07:35:26;100888.00;;;8.90
66403;BMP180;53212;52.112;5.144;2022-12-24T07:37:52;100895.40;;;8.98
66403;BMP180;53212;52.112;5.144;2022-12-24T07:40:17;100907.80;;;9.00
66403;BMP180;53212;52.112;5.144;2022-12-24T07:42:43;100908.00;;;9.00
66403;BMP180;53212;52.112;5.144;2022-12-24T07:45:09;100911.40;;;9.00
66403;BMP180;53212;52.112;5.144;2022-12-24T07:47:34;100905.20;;;9.00
66403;BMP180;53212;52.112;5.144;2022-12-24T07:50:00;100915.60;;;8.96
66403;BMP180;53212;52.112;5.144;2022-12-24T07:52:25;100925.80;;;8.90
66403;BMP180;53212;52.112;5.144;2022-12-24T07:54:51;100931.80;;;8.90
66403;BMP180;53212;52.112;5.144;2022-12-24T07:57:16;100939.80;;;8.90
66403;BMP180;53212;52.112;5.144;2022-12-24T07:59:42;100948.20;;;8.88
66403;BMP180;53212;52.112;5.144;2022-12-24T08:02:10;100948.00;;;8.90
66403;BMP180;53212;52.112;5.144;2022-12-24T08:04:36;100949.60;;;8.90
66403;BMP180;53212;52.112;5.144;2022-12-24T08:07:04;100945.40;;;8.90
66403;BMP180;53212;52.112;5.144;2022-12-24T08:09:32;100950.20;;;8.90
66403;BMP180;53212;52.112;5.144;2022-12-24T08:11:57;100953.20;;;8.90
66403;BMP180;53212;52.112;5.144;2022-12-24T08:14:23;100963.00;;;8.90
66403;BMP180;53212;52.112;5.144;2022-12-24T08:16:48;100969.80;;;8.90
66403;BMP180;53212;52.112;5.144;2022-12-24T08:19:14;100966.00;;;8.90
66403;BMP180;53212;52.112;5.144;2022-12-24T08:21:39;100978.20;;;8.90
66403;BMP180;53212;52.112;5.144;2022-12-24T08:24:05;100981.00;;;8.94
66403;BMP180;53212;52.112;5.144;2022-12-24T08:26:30;100980.60;;;9.00
66403;BMP180;53212;52.112;5.144;2022-12-24T08:28:56;100985.60;;;9.00
66403;BMP180;53212;52.112;5.144;2022-12-24T08:31:22;100990.40;;;9.00
66403;BMP180;53212;52.112;5.144;2022-12-24T08:33:47;100989.40;;;9.06
66403;BMP180;53212;52.112;5.144;2022-12-24T08:36:12;100991.80;;;9.10
66403;BMP180;53212;52.112;5.144;2022-12-24T08:38:38;100999.00;;;9.10
66403;BMP180;53212;52.112;5.144;2022-12-24T08:41:03;100995.60;;;9.20
66403;BMP180;53212;52.112;5.144;2022-12-24T08:43:29;100997.20;;;9.24
66403;BMP180;53212;52.112;5.144;2022-12-24T08:45:54;101008.20;;;9.30
66403;BMP180;53212;52.112;5.144;2022-12-24T08:48:20;101015.00;;;9.30
66403;BMP180;53212;52.112;5.144;2022-12-24T08:50:45;101009.40;;;9.40
66403;BMP180;53212;52.112;5.144;2022-12-24T08:53:12;101019.20;;;9.40
66403;BMP180;53212;52.112;5.144;2022-12-24T08:55:37;101015.60;;;9.50
66403;BMP180;53212;52.112;5.144;2022-12-24T08:58:04;101025.80;;;9.50
66403;BMP180;53212;52.112;5.144;2022-12-24T09:00:29;101024.80;;;9.60
66403;BMP180;53212;52.112;5.144;2022-12-24T09:02:56;101031.00;;;9.60
66403;BMP180;53212;52.112;5.144;2022-12-24T09:05:21;101035.20;;;9.70
66403;BMP180;53212;52.112;5.144;2022-12-24T09:07:47;101034.00;;;9.78
66403;BMP180;53212;52.112;5.144;2022-12-24T09:10:12;101044.40;;;9.80
66403;BMP180;53212;52.112;5.144;2022-12-24T09:12:38;101054.60;;;9.80
66403;BMP180;53212;52.112;5.144;2022-12-24T09:15:04;101057.80;;;9.80
66403;BMP180;53212;52.112;5.144;2022-12-24T09:17:33;101062.00;;;9.84
66403;BMP180;53212;52.112;5.144;2022-12-24T09:19:59;101060.00;;;9.90
66403;BMP180;53212;52.112;5.144;2022-12-24T09:22:24;101063.20;;;9.90
66403;BMP180;53212;52.112;5.144;2022-12-24T09:24:53;101066.60;;;9.90
66403;BMP180;53212;52.112;5.144;2022-12-24T09:27:18;101071.60;;;9.98
66403;BMP180;53212;52.112;5.144;2022-12-24T09:29:44;101073.80;;;9.98
66403;BMP180;53212;52.112;5.144;2022-12-24T09:32:09;101068.20;;;10.00
66403;BMP180;53212;52.112;5.144;2022-12-24T09:34:35;101074.60;;;10.00
66403;BMP180;53212;52.112;5.144;2022-12-24T09:37:01;101079.60;;;10.10
66403;BMP180;53212;52.112;5.144;2022-12-24T09:39:28;101076.80;;;10.16
66403;BMP180;53212;52.112;5.144;2022-12-24T09:42:13;101089.00;;;10.20
66403;BMP180;53212;52.112;5.144;2022-12-24T09:47:33;101091.20;;;10.30
66403;BMP180;53212;52.112;5.144;2022-12-24T09:50:21;101104.60;;;10.30
66403;BMP180;53212;52.112;5.144;2022-12-24T09:52:49;101100.00;;;10.30
66403;BMP180;53212;52.112;5.144;2022-12-24T09:55:26;101100.60;;;10.30
66403;BMP180;53212;52.112;5.144;2022-12-24T09:57:54;101108.20;;;10.30
66403;BMP180;53212;52.112;5.144;2022-12-24T10:00:32;101110.40;;;10.30
66403;BMP180;53212;52.112;5.144;2022-12-24T10:03:00;101112.20;;;10.40
66403;BMP180;53212;52.112;5.144;2022-12-24T10:05:38;101110.60;;;10.50
66403;BMP180;53212;52.112;5.144;2022-12-24T10:08:16;101108.60;;;10.48
66403;BMP180;53212;52.112;5.144;2022-12-24T10:11:05;101113.60;;;10.40
66403;BMP180;53212;52.112;5.144;2022-12-24T10:13:54;101113.80;;;10.48
66403;BMP180;53212;52.112;5.144;2022-12-24T10:16:37;101121.80;;;10.60
66403;BMP180;53212;52.112;5.144;2022-12-24T10:19:23;101118.80;;;10.70
66403;BMP180;53212;52.112;5.144;2022-12-24T10:28:33;101122.40;;;10.70
66403;BMP180;53212;52.112;5.144;2022-12-24T10:31:04;101121.20;;;10.70
66403;BMP180;53212;52.112;5.144;2022-12-24T10:33:43;101126.00;;;10.80
66403;BMP180;53212;52.112;5.144;2022-12-24T10:36:15;101124.00;;;10.80
66403;BMP180;53212;52.112;5.144;2022-12-24T10:38:44;101125.60;;;10.84
66403;BMP180;53212;52.112;5.144;2022-12-24T10:41:10;101126.80;;;10.88
66403;BMP180;53212;52.112;5.144;2022-12-24T10:43:38;101132.20;;;10.84
66403;BMP180;53212;52.112;5.144;2022-12-24T10:46:38;101134.80;;;10.80
66403;BMP180;53212;52.112;5.144;2022-12-24T10:49:06;101138.60;;;10.80
66403;BMP180;53212;52.112;5.144;2022-12-24T10:51:49;101134.80;;;10.86
66403;BMP180;53212;52.112;5.144;2022-12-24T10:54:23;101133.80;;;10.90
66403;BMP180;53212;52.112;5.144;2022-12-24T10:56:55;101134.00;;;10.88
66403;BMP180;53212;52.112;5.144;2022-12-24T10:59:42;101137.00;;;10.90
66403;BMP180;53212;52.112;5.144;2022-12-24T11:02:33;101145.00;;;10.90
66403;BMP180;53212;52.112;5.144;2022-12-24T11:05:00;101150.20;;;10.90
66403;BMP180;53212;52.112;5.144;2022-12-24T11:07:28;101142.60;;;10.82
66403;BMP180;53212;52.112;5.144;2022-12-24T11:10:04;101145.00;;;10.80
66403;BMP180;53212;52.112;5.144;2022-12-24T11:12:36;101145.40;;;10.70
66403;BMP180;53212;52.112;5.144;2022-12-24T11:15:15;101142.00;;;10.70
66403;BMP180;53212;52.112;5.144;2022-12-24T11:17:44;101133.80;;;10.60
66403;BMP180;53212;52.112;5.144;2022-12-24T11:20:17;101138.40;;;10.60
66403;BMP180;53212;52.112;5.144;2022-12-24T11:22:48;101142.00;;;10.60
66403;BMP180;53212;52.112;5.144;2022-12-24T11:25:24;101145.60;;;10.70
66403;BMP180;53212;52.112;5.144;2022-12-24T11:27:54;101145.00;;;10.70
66403;BMP180;53212;52.112;5.144;2022-12-24T11:30:30;101142.40;;;10.70
66403;BMP180;53212;52.112;5.144;2022-12-24T11:35:24;101147.00;;;10.60
66403;BMP180;53212;52.112;5.144;2022-12-24T11:40:33;101143.60;;;10.50
66403;BMP180;53212;52.112;5.144;2022-12-24T11:43:02;101147.20;;;10.50
66403;BMP180;53212;52.112;5.144;2022-12-24T11:45:30;101147.60;;;10.56
66403;BMP180;53212;52.112;5.144;2022-12-24T11:47:57;101154.40;;;10.58
66403;BMP180;53212;52.112;5.144;2022-12-24T11:53:14;101154.20;;;10.60
66403;BMP180;53212;52.112;5.144;2022-12-24T11:55:56;101151.00;;;10.50
66403;BMP180;53212;52.112;5.144;2022-12-24T11:58:47;101161.80;;;10.50
66403;BMP180;53212;52.112;5.144;2022-12-24T12:01:46;101167.80;;;10.50
66403;BMP180;53212;52.112;5.144;2022-12-24T12:04:20;101174.20;;;10.60
66403;BMP180;53212;52.112;5.144;2022-12-24T12:06:54;101163.40;;;10.66
66403;BMP180;53212;52.112;5.144;2022-12-24T12:09:26;101169.80;;;10.70
66403;BMP180;53212;52.112;5.144;2022-12-24T12:12:26;101162.20;;;10.70
66403;BMP180;53212;52.112;5.144;2022-12-24T12:15:12;101162.20;;;10.70
66403;BMP180;53212;52.112;5.144;2022-12-24T12:20:47;101183.40;;;10.70
66403;BMP180;53212;52.112;5.144;2022-12-24T12:23:32;101178.00;;;10.70
66403;BMP180;53212;52.112;5.144;2022-12-24T12:26:09;101190.60;;;10.70
66403;BMP180;53212;52.112;5.144;2022-12-24T12:31:29;101189.40;;;10.70
66403;BMP180;53212;52.112;5.144;2022-12-24T12:34:08;101189.60;;;10.70
66403;BMP180;53212;52.112;5.144;2022-12-24T12:36:55;101193.00;;;10.70
66403;BMP180;53212;52.112;5.144;2022-12-24T12:39:22;101194.60;;;10.70
66403;BMP180;53212;52.112;5.144;2022-12-24T12:41:54;101197.80;;;10.68
66403;BMP180;53212;52.112;5.144;2022-12-24T12:47:39;101212.20;;;10.70
66403;BMP180;53212;52.112;5.144;2022-12-24T12:50:28;101211.00;;;10.82
66403;BMP180;53212;52.112;5.144;2022-12-24T12:53:31;101207.40;;;10.88
66403;BMP180;53212;52.112;5.144;2022-12-24T12:56:06;101214.40;;;10.90
66403;BMP180;53212;52.112;5.144;2022-12-24T12:59:07;101220.60;;;11.00
66403;BMP180;53212;52.112;5.144;2022-12-24T13:01:46;101218.80;;;11.00
66403;BMP180;53212;52.112;5.144;2022-12-24T13:04:51;101223.80;;;11.00
66403;BMP180;53212;52.112;5.144;2022-12-24T13:16:44;101220.40;;;11.00
66403;BMP180;53212;52.112;5.144;2022-12-24T13:20:13;101221.20;;;11.10
66403;BMP180;53212;52.112;5.144;2022-12-24T13:22:50;101224.00;;;11.20
66403;BMP180;53212;52.112;5.144;2022-12-24T13:25:26;101228.20;;;11.20
66403;BMP180;53212;52.112;5.144;2022-12-24T13:27:52;101231.60;;;11.20
66403;BMP180;53212;52.112;5.144;2022-12-24T13:30:33;101230.60;;;11.20
66403;BMP180;53212;52.112;5.144;2022-12-24T13:32:59;101242.60;;;11.30
66403;BMP180;53212;52.112;5.144;2022-12-24T13:35:29;101239.40;;;11.20
66403;BMP180;53212;52.112;5.144;2022-12-24T13:40:49;101250.60;;;11.32
66403;BMP180;53212;52.112;5.144;2022-12-24T13:43:14;101255.60;;;11.30
66403;BMP180;53212;52.112;5.144;2022-12-24T13:45:43;101261.80;;;11.30
66403;BMP180;53212;52.112;5.144;2022-12-24T13:50:47;101264.60;;;11.30
66403;BMP180;53212;52.112;5.144;2022-12-24T13:54:03;101264.20;;;11.30
66403;BMP180;53212;52.112;5.144;2022-12-24T13:56:25;101263.40;;;11.24
66403;BMP180;53212;52.112;5.144;2022-12-24T13:59:10;101267.20;;;11.30
66403;BMP180;53212;52.112;5.144;2022-12-24T14:01:41;101268.20;;;11.40
66403;BMP180;53212;52.112;5.144;2022-12-24T14:04:09;101260.80;;;11.36
66403;BMP180;53212;52.112;5.144;2022-12-24T14:06:49;101264.00;;;11.30
66403;BMP180;53212;52.112;5.144;2022-12-24T14:09:20;101266.80;;;11.30
66403;BMP180;53212;52.112;5.144;2022-12-24T14:14:39;101276.20;;;11.50
66403;BMP180;53212;52.112;5.144;2022-12-24T14:19:47;101272.20;;;11.60
66403;BMP180;53212;52.112;5.144;2022-12-24T14:22:33;101276.80;;;11.60
66403;BMP180;53212;52.112;5.144;2022-12-24T14:25:11;101274.20;;;11.60
66403;BMP180;53212;52.112;5.144;2022-12-24T14:30:24;101279.00;;;11.48
66403;BMP180;53212;52.112;5.144;2022-12-24T14:32:51;101282.60;;;11.40
66403;BMP180;53212;52.112;5.144;2022-12-24T14:35:28;101281.40;;;11.30
66403;BMP180;53212;52.112;5.144;2022-12-24T14:38:02;101289.80;;;11.30
66403;BMP180;53212;52.112;5.144;2022-12-24T14:40:31;101293.40;;;11.28
66403;BMP180;53212;52.112;5.144;2022-12-24T14:43:24;101296.00;;;11.20
66403;BMP180;53212;52.112;5.144;2022-12-24T14:48:49;101306.00;;;11.20
66403;BMP180;53212;52.112;5.144;2022-12-24T14:51:36;101306.00;;;11.20
66403;BMP180;53212;52.112;5.144;2022-12-24T14:59:58;101322.80;;;10.70
66403;BMP180;53212;52.112;5.144;2022-12-24T15:02:46;101319.20;;;10.62
66403;BMP180;53212;52.112;5.144;2022-12-24T15:05:21;101323.80;;;10.50
66403;BMP180;53212;52.112;5.144;2022-12-24T15:08:06;101327.00;;;10.36
66403;BMP180;53212;52.112;5.144;2022-12-24T15:10:36;101334.00;;;10.30
66403;BMP180;53212;52.112;5.144;2022-12-24T15:15:48;101331.00;;;10.10
66403;BMP180;53212;52.112;5.144;2022-12-24T15:18:17;101333.60;;;10.06
66403;BMP180;53212;52.112;5.144;2022-12-24T15:20:50;101334.00;;;10.00
66403;BMP180;53212;52.112;5.144;2022-12-24T15:23:25;101331.00;;;10.00
66403;BMP180;53212;52.112;5.144;2022-12-24T15:25:51;101338.60;;;9.90
66403;BMP180;53212;52.112;5.144;2022-12-24T15:28:18;101339.20;;;9.80
66403;BMP180;53212;52.112;5.144;2022-12-24T15:30:45;101343.20;;;9.80
66403;BMP180;53212;52.112;5.144;2022-12-24T15:33:11;101344.60;;;9.76
66403;BMP180;53212;52.112;5.144;2022-12-24T15:35:54;101344.80;;;9.72
66403;BMP180;53212;52.112;5.144;2022-12-24T15:38:33;101353.20;;;9.70
66403;BMP180;53212;52.112;5.144;2022-12-24T15:41:05;101359.40;;;9.70
66403;BMP180;53212;52.112;5.144;2022-12-24T15:43:31;101358.00;;;9.70